Time;durP1;ratioP1;P1;durP2;ratioP2;P2;SDS_P1;SDS_P2;PMS_P1;PMS_P2;Temp;Humidity;BMP_temperature;BMP_pressure;BME280_temperature;BME280_humidity;BME280_pressure;Samples;Min_cycle;Max_cycle;Signal;HPM_P1;HPM_P2
2023/03/16 00:01:31;;;;;;;31.50;16.20;;;;;;;-1.47;77.57;100719.70;103672;280;38507;-73
2023/03/16 00:04:05;;;;;;;33.50;16.40;;;;;;;-1.50;77.67;100723.42;103666;280;38801;-73
2023/03/16 00:06:39;;;;;;;28.80;15.40;;;;;;;-1.53;77.82;100722.35;103723;280;38258;-71
2023/03/16 00:09:13;;;;;;;29.70;16.00;;;;;;;-1.52;77.79;100723.72;103695;280;39442;-72
2023/03/16 00:11:47;;;;;;;31.70;17.20;;;;;;;-1.56;77.78;100727.43;103705;280;38368;-71
2023/03/16 00:14:21;;;;;;;35.20;17.70;;;;;;;-1.60;77.92;100724.45;103688;280;38270;-73
2023/03/16 00:16:55;;;;;;;32.30;16.80;;;;;;;-1.64;78.01;100722.52;103671;280;38894;-72
2023/03/16 00:19:34;;;;;;;33.90;17.40;;;;;;;-1.66;77.98;100723.83;103579;280;175966;-72
2023/03/16 00:22:09;;;;;;;38.40;18.40;;;;;;;-1.70;78.14;100724.27;103690;280;38245;-70
2023/03/16 00:24:43;;;;;;;35.60;17.70;;;;;;;-1.71;78.30;100731.11;103620;281;39045;-72
2023/03/16 00:27:18;;;;;;;41.90;18.60;;;;;;;-1.69;78.32;100734.73;103698;280;39554;-72
2023/03/16 00:29:54;;;;;;;37.10;19.20;;;;;;;-1.67;78.43;100740.77;103731;280;39149;-70
2023/03/16 00:32:30;;;;;;;41.30;19.30;;;;;;;-1.64;78.33;100744.23;103680;280;38464;-71
2023/03/16 00:35:06;;;;;;;42.60;19.30;;;;;;;-1.68;78.25;100744.33;103677;280;38808;-72
2023/03/16 00:37:41;;;;;;;39.10;19.20;;;;;;;-1.73;78.36;100747.66;103675;280;38555;-72
2023/03/16 00:40:16;;;;;;;46.20;18.30;;;;;;;-1.80;78.13;100748.91;103645;280;38769;-72
2023/03/16 00:42:50;;;;;;;36.80;17.90;;;;;;;-1.86;78.26;100749.82;103689;280;39441;-73
2023/03/16 00:45:24;;;;;;;39.00;16.80;;;;;;;-1.88;78.45;100754.23;103713;280;39940;-72
2023/03/16 00:47:58;;;;;;;43.50;17.00;;;;;;;-1.88;78.49;100757.98;103671;280;38359;-72
2023/03/16 00:50:32;;;;;;;37.20;17.30;;;;;;;-1.89;78.54;100756.77;103630;269;39603;-72
2023/03/16 00:53:06;;;;;;;36.90;17.70;;;;;;;-1.89;78.59;100754.38;103636;280;39848;-72
2023/03/16 00:55:40;;;;;;;35.50;17.60;;;;;;;-1.90;78.51;100754.88;103685;280;39731;-71
2023/03/16 00:58:14;;;;;;;42.00;18.60;;;;;;;-1.93;78.43;100752.09;103652;280;38474;-72
2023/03/16 01:00:50;;;;;;;33.30;17.40;;;;;;;-1.98;78.36;100750.80;103504;280;176151;-74
2023/03/16 01:03:23;;;;;;;36.90;16.30;;;;;;;-2.02;78.37;100750.17;103637;280;38253;-72
2023/03/16 01:05:59;;;;;;;31.30;15.70;;;;;;;-2.09;78.24;100751.27;103714;280;39412;-74
2023/03/16 01:08:33;;;;;;;35.20;15.60;;;;;;;-2.12;78.32;100755.84;103653;280;39162;-72
2023/03/16 01:11:09;;;;;;;33.20;16.20;;;;;;;-2.13;78.36;100753.58;103669;280;38543;-73
2023/03/16 01:13:43;;;;;;;36.00;15.90;;;;;;;-2.15;78.35;100757.14;103674;280;39493;-72
2023/03/16 01:16:17;;;;;;;33.90;16.30;;;;;;;-2.16;78.24;100762.74;103712;280;38407;-73
2023/03/16 01:18:52;;;;;;;31.50;15.30;;;;;;;-2.22;78.26;100762.12;103594;280;175888;-73
2023/03/16 01:21:26;;;;;;;33.90;16.50;;;;;;;-2.29;78.08;100765.74;103722;280;38491;-71
2023/03/16 01:23:59;;;;;;;34.40;16.50;;;;;;;-2.37;78.13;100768.66;103665;280;39966;-71
2023/03/16 01:26:33;;;;;;;30.10;15.70;;;;;;;-2.42;78.22;100764.63;103720;280;38441;-71
2023/03/16 01:29:07;;;;;;;29.20;15.30;;;;;;;-2.43;78.26;100767.49;103679;280;38252;-70
2023/03/16 01:31:41;;;;;;;29.00;14.60;;;;;;;-2.45;78.39;100774.30;103710;280;38305;-72
2023/03/16 01:34:17;;;;;;;29.90;15.60;;;;;;;-2.45;78.54;100774.63;103704;280;38281;-71
2023/03/16 01:36:52;;;;;;;31.80;16.30;;;;;;;-2.46;78.51;100775.13;103688;280;39902;-71
2023/03/16 01:39:27;;;;;;;32.80;16.20;;;;;;;-2.50;78.53;100772.81;103678;280;38438;-72
2023/03/16 01:42:02;;;;;;;32.20;15.00;;;;;;;-2.57;78.32;100780.00;103665;280;38246;-72
2023/03/16 01:44:54;;;;;;;33.20;14.70;;;;;;;-2.64;78.37;100782.92;103670;280;38235;-71
2023/03/16 01:47:30;;;;;;;28.50;14.40;;;;;;;-2.68;78.37;100786.43;103719;280;39992;-70
2023/03/16 01:50:04;;;;;;;27.70;13.90;;;;;;;-2.69;78.50;100787.94;103712;279;38769;-72
2023/03/16 01:52:39;;;;;;;24.00;13.30;;;;;;;-2.69;78.64;100787.77;103677;279;39667;-73
2023/03/16 01:55:13;;;;;;;29.40;13.60;;;;;;;-2.72;78.63;100790.45;103726;280;38228;-72
2023/03/16 01:57:48;;;;;;;33.70;15.00;;;;;;;-2.74;78.80;100786.27;103707;280;38731;-70
2023/03/16 02:00:30;;;;;;;26.50;14.00;;;;;;;-2.76;78.86;100788.11;103665;280;39656;-72
2023/03/16 02:03:07;;;;;;;27.00;13.20;;;;;;;-2.80;78.85;100790.94;103610;281;38727;-72
2023/03/16 02:05:43;;;;;;;26.30;13.30;;;;;;;-2.86;78.83;100788.56;103688;280;38386;-74
2023/03/16 02:08:18;;;;;;;26.30;12.40;;;;;;;-2.89;78.92;100786.63;103600;280;38273;-73
2023/03/16 02:10:53;;;;;;;24.30;11.80;;;;;;;-2.89;78.81;100787.66;103718;280;38852;-72
2023/03/16 02:13:28;;;;;;;28.30;13.60;;;;;;;-2.90;78.87;100785.94;103639;280;39575;-70
2023/03/16 02:16:02;;;;;;;28.00;14.00;;;;;;;-2.91;78.82;100786.59;103668;280;39498;-72
2023/03/16 02:18:36;;;;;;;26.00;12.60;;;;;;;-2.93;78.93;100786.02;103696;280;40474;-73
2023/03/16 02:21:13;;;;;;;25.50;13.20;;;;;;;-2.94;79.17;100789.75;103710;280;39725;-72
2023/03/16 02:23:46;;;;;;;24.00;12.70;;;;;;;-2.97;79.11;100790.03;103673;280;40494;-74
2023/03/16 02:26:25;;;;;;;23.40;12.90;;;;;;;-3.00;79.00;100791.14;103681;280;39435;-74
2023/03/16 02:29:06;;;;;;;24.10;12.40;;;;;;;-3.04;79.04;100790.72;103713;280;38370;-72
2023/03/16 02:31:40;;;;;;;24.70;12.20;;;;;;;-3.05;79.25;100787.79;103701;280;38413;-72
2023/03/16 02:34:14;;;;;;;26.60;12.60;;;;;;;-3.05;79.28;100791.04;103524;281;38198;-72
2023/03/16 02:36:49;;;;;;;24.50;12.20;;;;;;;-3.03;79.47;100797.55;103719;280;38401;-73
2023/03/16 02:39:23;;;;;;;26.50;12.50;;;;;;;-3.06;79.26;100800.57;103567;280;40481;-73
2023/03/16 02:41:57;;;;;;;25.50;12.30;;;;;;;-3.12;79.19;100801.11;103733;280;38342;-72
2023/03/16 02:44:33;;;;;;;27.40;11.80;;;;;;;-3.17;79.16;100807.13;103650;280;39945;-74
2023/03/16 02:47:10;;;;;;;24.70;11.80;;;;;;;-3.22;79.34;100812.48;103694;280;39047;-70
2023/03/16 02:49:46;;;;;;;23.40;11.50;;;;;;;-3.24;79.37;100812.59;103755;280;38419;-71
2023/03/16 02:52:20;;;;;;;23.10;11.80;;;;;;;-3.23;79.52;100820.45;103708;280;39741;-71
2023/03/16 02:54:54;;;;;;;23.60;12.60;;;;;;;-3.25;79.79;100827.41;103740;280;39307;-73
2023/03/16 02:57:28;;;;;;;24.20;12.80;;;;;;;-3.29;79.70;100828.48;103670;280;38498;-71
2023/03/16 03:00:05;;;;;;;21.70;12.50;;;;;;;-3.31;79.73;100828.95;103729;280;39719;-72
2023/03/16 03:02:39;;;;;;;22.90;12.60;;;;;;;-3.33;79.76;100830.42;103689;280;38320;-72
2023/03/16 03:05:13;;;;;;;26.20;12.50;;;;;;;-3.35;79.78;100831.58;103749;280;38246;-73
2023/03/16 03:07:47;;;;;;;23.90;12.30;;;;;;;-3.37;79.81;100829.48;103697;280;39978;-74
2023/03/16 03:10:22;;;;;;;24.70;13.00;;;;;;;-3.36;80.07;100832.56;103701;280;38420;-72
2023/03/16 03:12:56;;;;;;;26.10;13.40;;;;;;;-3.35;80.11;100836.02;103680;280;39690;-74
2023/03/16 03:15:30;;;;;;;27.00;13.00;;;;;;;-3.38;80.13;100833.39;103705;280;38275;-71
2023/03/16 03:18:04;;;;;;;28.60;14.70;;;;;;;-3.40;80.21;100835.55;103704;268;40146;-71
2023/03/16 03:20:38;;;;;;;32.50;15.00;;;;;;;-3.42;80.22;100840.45;103702;280;38737;-73
2023/03/16 03:23:14;;;;;;;28.60;13.50;;;;;;;-3.42;80.20;100843.35;103696;280;39387;-73
2023/03/16 03:25:48;;;;;;;24.40;12.90;;;;;;;-3.41;80.37;100848.80;103735;280;39971;-72
2023/03/16 03:28:22;;;;;;;30.90;13.20;;;;;;;-3.42;80.39;100848.29;103662;280;38242;-72
2023/03/16 03:30:56;;;;;;;31.90;14.50;;;;;;;-3.41;80.60;100851.22;103699;280;38970;-74
2023/03/16 03:33:32;;;;;;;29.90;15.20;;;;;;;-3.41;80.70;100856.70;103663;280;39095;-74
2023/03/16 03:36:10;;;;;;;32.00;15.10;;;;;;;-3.43;80.71;100854.76;103682;280;38950;-73
2023/03/16 03:38:44;;;;;;;30.10;14.60;;;;;;;-3.45;80.73;100858.80;103688;280;39465;-72
2023/03/16 03:41:18;;;;;;;27.60;13.70;;;;;;;-3.45;80.77;100861.52;103681;280;39679;-73
2023/03/16 03:43:51;;;;;;;30.20;14.50;;;;;;;-3.44;80.77;100860.88;103671;280;39735;-73
2023/03/16 03:46:25;;;;;;;32.60;15.30;;;;;;;-3.44;80.92;100864.44;103710;280;38499;-73
2023/03/16 03:49:02;;;;;;;36.90;16.00;;;;;;;-3.43;81.18;100868.91;103603;280;173648;-73
2023/03/16 03:51:36;;;;;;;31.90;16.10;;;;;;;-3.42;81.21;100869.95;103611;280;176204;-71
2023/03/16 03:54:10;;;;;;;35.40;15.90;;;;;;;-3.42;81.43;100876.09;103687;280;38508;-70
2023/03/16 03:56:44;;;;;;;32.00;15.70;;;;;;;-3.43;81.42;100878.81;103672;280;39426;-72
2023/03/16 03:59:18;;;;;;;31.00;15.50;;;;;;;-3.43;81.35;100883.58;103646;280;38375;-69
2023/03/16 04:01:52;;;;;;;29.30;13.80;;;;;;;-3.42;81.39;100882.75;103685;280;38416;-73
2023/03/16 04:04:26;;;;;;;32.00;14.60;;;;;;;-3.42;81.33;100884.98;103670;280;38248;-73
2023/03/16 04:07:00;;;;;;;28.70;15.10;;;;;;;-3.42;81.15;100886.31;103599;281;38897;-72
2023/03/16 04:09:35;;;;;;;28.50;14.90;;;;;;;-3.45;81.24;100884.04;103518;281;38624;-71
2023/03/16 04:12:28;;;;;;;31.70;13.70;;;;;;;-3.49;81.09;100887.33;103541;281;38292;-71
2023/03/16 04:15:02;;;;;;;29.90;14.70;;;;;;;-3.53;80.99;100890.96;103585;281;38506;-73
2023/03/16 04:17:36;;;;;;;27.10;14.40;;;;;;;-3.57;81.08;100897.69;103499;281;38242;-73
2023/03/16 04:20:17;;;;;;;25.80;13.00;;;;;;;-3.58;81.21;100897.16;103514;281;38462;-69
2023/03/16 04:22:57;;;;;;;30.50;14.70;;;;;;;-3.60;81.06;100897.25;103546;281;39464;-71
2023/03/16 04:25:29;;;;;;;;;;;;;;;-3.63;81.12;100898.88;103452;281;38282;-73
2023/03/16 04:28:03;;;;;;;26.20;15.10;;;;;;;-3.69;81.19;100895.83;103555;281;38307;-73
2023/03/16 04:30:37;;;;;;;30.70;14.90;;;;;;;-3.69;81.30;100897.70;103531;281;38271;-73
2023/03/16 04:33:11;;;;;;;27.10;14.40;;;;;;;-3.71;81.47;100897.13;103526;281;39417;-73
2023/03/16 04:35:45;;;;;;;26.60;13.70;;;;;;;-3.74;81.43;100900.13;103537;281;38700;-72
2023/03/16 04:38:19;;;;;;;30.40;14.00;;;;;;;-3.73;81.64;100901.33;103514;281;39458;-73
2023/03/16 04:40:53;;;;;;;23.50;14.20;;;;;;;-3.73;81.58;100902.02;103551;281;39655;-73
2023/03/16 04:43:27;;;;;;;27.30;14.30;;;;;;;-3.73;81.74;100905.10;103570;281;38375;-74
2023/03/16 04:46:01;;;;;;;30.90;14.80;;;;;;;-3.72;81.89;100903.92;103555;281;38243;-69
2023/03/16 04:48:38;;;;;;;26.10;13.60;;;;;;;-3.72;81.86;100911.24;103549;281;38705;-70
2023/03/16 04:51:12;;;;;;;26.00;13.10;;;;;;;-3.75;81.85;100911.84;103556;281;38236;-72
2023/03/16 04:53:47;;;;;;;25.50;13.60;;;;;;;-3.77;81.79;100914.70;103439;281;173483;-71
2023/03/16 04:56:22;;;;;;;24.60;12.80;;;;;;;-3.77;81.81;100919.63;103411;281;173134;-72
2023/03/16 04:58:57;;;;;;;23.90;13.80;;;;;;;-3.78;81.78;100923.53;103404;281;38347;-72
2023/03/16 05:01:31;;;;;;;23.40;12.90;;;;;;;-3.76;81.74;100928.50;103538;281;39254;-71
2023/03/16 05:04:06;;;;;;;24.60;13.20;;;;;;;-3.76;81.83;100932.77;103554;281;39424;-73
2023/03/16 05:06:40;;;;;;;25.60;14.30;;;;;;;-3.76;82.07;100936.36;103537;281;39746;-71
2023/03/16 05:09:15;;;;;;;31.50;15.60;;;;;;;-3.74;82.19;100933.88;103622;280;38262;-71
2023/03/16 05:11:50;;;;;;;27.30;13.20;;;;;;;-3.71;82.32;100934.80;103690;268;40036;-73
2023/03/16 05:14:24;;;;;;;23.60;13.70;;;;;;;-3.66;82.42;100932.56;103677;280;38235;-73
2023/03/16 05:17:02;;;;;;;31.20;14.60;;;;;;;-3.57;82.60;100934.87;103706;280;38279;-72
2023/03/16 05:19:37;;;;;;;23.50;13.70;;;;;;;-3.51;82.72;100933.48;103708;280;38537;-70
2023/03/16 05:22:12;;;;;;;25.20;13.70;;;;;;;-3.46;82.74;100935.34;103602;280;38238;-70
2023/03/16 05:24:46;;;;;;;26.90;14.10;;;;;;;-3.41;82.87;100936.84;103600;280;39757;-72
2023/03/16 05:27:20;;;;;;;25.20;13.10;;;;;;;-3.35;82.90;100936.65;103700;269;38359;-71
2023/03/16 05:29:55;;;;;;;23.20;13.10;;;;;;;-3.28;83.00;100936.86;103690;280;38471;-73
2023/03/16 05:32:30;;;;;;;25.10;14.20;;;;;;;-3.17;83.19;100940.22;103728;280;39485;-72
2023/03/16 05:35:04;;;;;;;25.30;14.50;;;;;;;-3.08;83.37;100938.75;103724;280;39697;-73
2023/03/16 05:37:38;;;;;;;29.50;14.10;;;;;;;-2.99;83.37;100946.16;103715;280;38334;-74
2023/03/16 05:40:16;;;;;;;24.50;15.00;;;;;;;-2.94;83.32;100946.48;103583;270;38466;-70
2023/03/16 05:42:56;;;;;;;30.50;14.90;;;;;;;-2.88;83.52;100951.91;103531;281;38618;-72
2023/03/16 05:45:30;;;;;;;27.10;14.30;;;;;;;-2.79;83.65;100946.84;103688;280;39482;-70
2023/03/16 05:48:05;;;;;;;31.10;14.20;;;;;;;-2.68;83.79;100946.95;103700;280;40699;-70
2023/03/16 05:50:40;;;;;;;25.50;13.60;;;;;;;-2.55;83.87;100947.10;103707;280;38260;-75
2023/03/16 05:53:15;;;;;;;27.00;13.80;;;;;;;-2.36;84.22;100949.78;103683;280;38379;-74
2023/03/16 05:55:55;;;;;;;26.50;14.30;;;;;;;-1.61;86.73;100953.48;103756;280;38376;-74
2023/03/16 05:58:32;;;;;;;24.90;14.90;;;;;;;-0.15;89.78;100946.98;103021;280;922274;-74
2023/03/16 06:01:08;;;;;;;25.80;14.40;;;;;;;1.12;88.78;100945.11;103690;280;40176;-73
2023/03/16 06:03:42;;;;;;;26.50;14.80;;;;;;;2.21;87.25;100949.91;103736;280;39632;-73
2023/03/16 06:06:17;;;;;;;26.80;14.30;;;;;;;3.22;84.12;100946.29;103760;280;39725;-71
2023/03/16 06:08:51;;;;;;;25.90;14.10;;;;;;;4.15;81.59;100942.94;103688;280;38221;-73
2023/03/16 06:11:25;;;;;;;26.70;15.40;;;;;;;5.01;79.38;100937.89;103758;280;38445;-73
2023/03/16 06:14:00;;;;;;;23.60;15.40;;;;;;;5.76;77.65;100937.00;103720;280;39966;-74
2023/03/16 06:16:34;;;;;;;31.50;16.40;;;;;;;6.43;77.28;100940.11;103699;280;38234;-74
2023/03/16 06:19:09;;;;;;;25.20;13.90;;;;;;;7.03;73.93;100937.95;103649;280;38404;-74
2023/03/16 06:21:43;;;;;;;28.70;15.60;;;;;;;7.35;70.10;100939.56;103724;280;38455;-72
2023/03/16 06:24:17;;;;;;;25.30;15.20;;;;;;;7.58;67.89;100941.96;103614;280;38254;-74
2023/03/16 06:26:52;;;;;;;32.80;15.50;;;;;;;7.85;65.19;100944.27;103689;280;39093;-74
2023/03/16 06:29:25;;;;;;;28.20;14.90;;;;;;;7.99;64.14;100949.77;103675;280;38282;-73
2023/03/16 06:32:00;;;;;;;25.50;15.00;;;;;;;7.97;62.54;100946.32;103707;280;39393;-75
2023/03/16 06:34:35;;;;;;;26.40;16.10;;;;;;;8.08;61.90;100943.88;103684;280;38977;-74
2023/03/16 06:37:10;;;;;;;28.10;16.10;;;;;;;8.17;60.55;100951.16;103692;280;38523;-72
2023/03/16 06:39:44;;;;;;;30.10;17.10;;;;;;;8.05;59.97;100952.61;103704;280;39948;-73
2023/03/16 06:42:18;;;;;;;25.60;16.10;;;;;;;7.95;59.82;100948.98;103669;280;39703;-73
2023/03/16 06:44:52;;;;;;;26.50;16.60;;;;;;;7.83;59.78;100953.70;103722;280;39654;-74
2023/03/16 06:47:26;;;;;;;29.20;16.60;;;;;;;7.75;58.68;100953.85;103665;280;38502;-73
2023/03/16 06:50:00;;;;;;;30.50;17.60;;;;;;;7.83;58.79;100954.58;103603;280;39661;-74
2023/03/16 06:52:34;;;;;;;28.40;17.70;;;;;;;7.88;58.87;100957.26;103713;280;39435;-72
2023/03/16 06:55:13;;;;;;;31.70;16.70;;;;;;;8.00;58.52;100960.86;103654;280;39545;-72
2023/03/16 06:57:47;;;;;;;28.50;16.50;;;;;;;8.32;58.06;100961.66;103608;280;38306;-70
2023/03/16 07:00:22;;;;;;;29.00;17.10;;;;;;;8.53;57.26;100959.71;103702;280;38505;-73
2023/03/16 07:02:56;;;;;;;31.80;16.90;;;;;;;8.72;56.93;100965.41;103673;280;39396;-74
2023/03/16 07:05:30;;;;;;;28.40;17.30;;;;;;;9.02;56.38;100964.26;103714;280;38388;-73
2023/03/16 07:08:05;;;;;;;26.00;16.20;;;;;;;9.15;55.62;100972.31;103710;280;38220;-73
2023/03/16 07:10:41;;;;;;;26.00;16.30;;;;;;;9.11;54.63;100974.32;103710;280;38506;-72
2023/03/16 07:13:17;;;;;;;26.20;16.10;;;;;;;9.09;54.57;100976.64;103696;280;39705;-73
2023/03/16 07:15:54;;;;;;;29.00;16.50;;;;;;;8.87;54.13;100982.66;103701;280;39419;-71
2023/03/16 07:18:30;;;;;;;30.80;17.20;;;;;;;8.62;55.02;100984.23;103676;280;39480;-73
2023/03/16 07:21:06;;;;;;;23.10;14.60;;;;;;;8.62;56.27;100983.87;103709;280;39408;-73
2023/03/16 07:23:42;;;;;;;25.30;15.60;;;;;;;9.08;55.40;100987.27;103646;280;38638;-73
2023/03/16 07:26:16;;;;;;;26.60;16.60;;;;;;;9.48;55.32;100984.45;103708;280;40166;-74
2023/03/16 07:28:50;;;;;;;27.40;17.20;;;;;;;10.04;55.00;100984.25;103588;280;39382;-74
2023/03/16 07:31:25;;;;;;;27.60;17.80;;;;;;;10.59;53.81;100983.34;103691;280;38243;-74
2023/03/16 07:34:05;;;;;;;24.90;15.60;;;;;;;10.85;52.14;100983.45;103709;280;38944;-75
2023/03/16 07:36:43;;;;;;;27.70;16.90;;;;;;;10.90;52.03;100984.87;103687;280;38707;-74
2023/03/16 07:39:19;;;;;;;24.90;16.40;;;;;;;11.20;51.83;100984.14;103665;280;38361;-73
2023/03/16 07:41:56;;;;;;;23.80;17.20;;;;;;;11.72;51.00;100979.52;103620;281;38478;-74
2023/03/16 07:44:33;;;;;;;25.60;17.10;;;;;;;12.21;50.00;100977.70;103712;280;39692;-75
2023/03/16 07:47:13;;;;;;;27.70;17.20;;;;;;;12.74;48.76;100974.21;103695;280;38404;-74
2023/03/16 07:49:54;;;;;;;25.20;16.20;;;;;;;13.33;48.30;100978.42;103723;280;38518;-73
2023/03/16 07:52:30;;;;;;;24.40;16.70;;;;;;;13.99;46.67;100978.52;103702;280;38531;-73
2023/03/16 07:55:10;;;;;;;24.30;16.70;;;;;;;14.56;45.69;100978.52;103656;280;39660;-75
2023/03/16 07:57:47;;;;;;;25.40;16.70;;;;;;;14.88;43.08;100979.55;103692;280;38881;-74
2023/03/16 08:00:24;;;;;;;24.40;16.80;;;;;;;15.28;43.42;100979.75;103688;280;39455;-74
2023/03/16 08:02:59;;;;;;;25.20;16.50;;;;;;;16.06;42.77;100974.52;103599;280;174773;-74
2023/03/16 08:05:34;;;;;;;22.60;15.90;;;;;;;16.56;40.74;100969.83;103704;280;39421;-74
2023/03/16 08:08:09;;;;;;;24.80;15.60;;;;;;;17.04;39.05;100970.95;103705;280;39431;-73
2023/03/16 08:10:48;;;;;;;20.00;15.00;;;;;;;17.44;38.79;100971.66;103736;280;38440;-75
2023/03/16 08:13:31;;;;;;;24.10;15.30;;;;;;;17.99;37.61;100972.91;103671;280;38542;-74
2023/03/16 08:16:09;;;;;;;19.50;14.90;;;;;;;18.37;36.07;100976.10;103673;280;39883;-74
2023/03/16 08:18:48;;;;;;;23.90;15.80;;;;;;;18.52;35.47;100974.83;103666;280;38749;-76
2023/03/16 08:21:31;;;;;;;21.80;15.40;;;;;;;18.74;35.25;100975.94;103691;280;38950;-73
2023/03/16 08:24:10;;;;;;;22.60;14.60;;;;;;;18.88;34.42;100977.59;103710;280;38625;-74
2023/03/16 08:26:44;;;;;;;17.80;13.00;;;;;;;19.15;34.55;100974.73;103674;280;38235;-72
2023/03/16 08:29:22;;;;;;;16.00;13.00;;;;;;;19.70;33.72;100972.43;103663;280;39422;-72
2023/03/16 08:31:59;;;;;;;22.20;15.60;;;;;;;19.98;32.87;100974.11;103700;280;38680;-74
2023/03/16 08:34:35;;;;;;;19.60;13.90;;;;;;;20.15;32.24;100975.27;103655;280;38891;-74
2023/03/16 08:37:10;;;;;;;17.30;13.10;;;;;;;20.32;31.58;100974.92;103695;280;38975;-73
2023/03/16 08:39:45;;;;;;;17.60;13.20;;;;;;;20.27;31.54;100977.11;103657;280;39978;-74
2023/03/16 08:42:21;;;;;;;16.90;12.90;;;;;;;20.51;31.82;100975.42;103674;280;38266;-75
2023/03/16 08:44:59;;;;;;;19.80;14.40;;;;;;;20.51;30.56;100981.27;103702;268;38430;-74
2023/03/16 08:47:34;;;;;;;19.70;13.50;;;;;;;20.34;31.17;100980.45;103700;280;38638;-74
2023/03/16 08:50:11;;;;;;;19.20;14.50;;;;;;;20.62;31.12;100985.10;103646;281;40185;-75
2023/03/16 08:52:47;;;;;;;19.00;13.80;;;;;;;20.89;30.36;100983.77;103685;280;39846;-75
2023/03/16 08:55:23;;;;;;;22.90;15.10;;;;;;;20.90;30.85;100987.06;103693;280;38258;-74
2023/03/16 08:58:14;;;;;;;21.90;15.80;;;;;;;20.96;30.06;100990.56;103603;268;174432;-74
2023/03/16 09:00:49;;;;;;;21.30;15.10;;;;;;;21.05;29.62;100994.11;103753;280;38786;-74
2023/03/16 09:03:26;;;;;;;21.50;14.60;;;;;;;21.00;29.49;100995.60;103662;280;38753;-72
2023/03/16 09:06:08;;;;;;;18.60;13.70;;;;;;;21.14;30.46;100997.41;103742;280;39952;-74
2023/03/16 09:08:46;;;;;;;18.20;13.20;;;;;;;21.38;29.31;100996.52;103698;280;39703;-74
2023/03/16 09:11:29;;;;;;;14.80;12.30;;;;;;;21.28;29.30;100999.21;103657;280;39402;-72
2023/03/16 09:14:03;;;;;;;17.40;11.00;;;;;;;21.12;29.18;100994.71;103703;269;39428;-72
2023/03/16 09:16:51;;;;;;;13.90;8.80;;;;;;;21.25;28.88;100990.20;103704;280;38831;-74
2023/03/16 09:19:32;;;;;;;13.00;9.20;;;;;;;21.29;29.03;100989.71;103617;280;38243;-72
2023/03/16 09:22:07;;;;;;;11.00;7.90;;;;;;;21.41;28.70;100991.73;103701;280;38540;-73
2023/03/16 09:24:42;;;;;;;11.60;7.80;;;;;;;20.94;28.48;100991.89;103713;280;38269;-71
2023/03/16 09:27:31;;;;;;;9.70;6.70;;;;;;;20.85;29.21;100993.23;103697;280;39826;-74
2023/03/16 09:30:11;;;;;;;9.70;6.30;;;;;;;21.14;29.26;100990.14;103567;281;38970;-73
2023/03/16 09:32:47;;;;;;;9.80;7.40;;;;;;;21.53;28.56;100989.02;103745;280;39632;-72
2023/03/16 09:35:22;;;;;;;11.60;7.30;;;;;;;21.57;28.14;100992.98;103720;280;38302;-75
2023/03/16 09:37:57;;;;;;;9.00;5.50;;;;;;;21.74;28.20;100995.33;103699;280;38975;-75
2023/03/16 09:40:32;;;;;;;8.60;6.00;;;;;;;21.99;27.53;100992.00;103707;280;38327;-74
2023/03/16 09:43:29;;;;;;;11.30;6.60;;;;;;;22.06;26.96;100987.91;103608;280;38884;-74
2023/03/16 09:46:08;;;;;;;10.50;6.60;;;;;;;22.04;27.34;100987.68;103597;280;187908;-74
2023/03/16 09:48:43;;;;;;;10.70;6.90;;;;;;;22.05;27.17;100989.58;103721;280;38361;-74
2023/03/16 09:51:22;;;;;;;13.30;8.10;;;;;;;22.04;27.34;100988.06;103673;280;38379;-73
2023/03/16 09:54:02;;;;;;;9.70;6.90;;;;;;;22.05;26.73;100988.36;103676;280;38953;-73
2023/03/16 09:56:40;;;;;;;10.50;6.40;;;;;;;21.87;27.02;100990.76;103593;280;39050;-73
2023/03/16 09:59:26;;;;;;;9.00;6.30;;;;;;;21.83;26.43;100993.58;103672;280;39959;-72
2023/03/16 10:02:19;;;;;;;7.90;5.80;;;;;;;21.18;25.94;100995.85;103727;280;39930;-72
2023/03/16 10:05:05;;;;;;;8.40;5.50;;;;;;;20.34;26.81;100999.27;103741;280;38549;-73
2023/03/16 10:08:01;;;;;;;10.40;6.10;;;;;;;19.62;28.07;100997.20;103657;280;39984;-72
2023/03/16 10:10:54;;;;;;;10.20;6.10;;;;;;;19.13;28.30;100996.83;103729;280;39956;-74
2023/03/16 10:13:38;;;;;;;10.00;5.90;;;;;;;18.41;29.08;101001.64;103690;280;39188;-74
2023/03/16 10:16:14;;;;;;;8.30;5.70;;;;;;;17.83;29.84;101000.15;103699;279;39564;-74
2023/03/16 10:18:53;;;;;;;10.90;6.50;;;;;;;17.02;30.00;101005.91;103487;281;172194;-73
2023/03/16 10:21:28;;;;;;;10.90;6.00;;;;;;;16.08;30.70;101013.14;103685;280;39321;-74
2023/03/16 10:24:16;;;;;;;8.50;6.00;;;;;;;15.29;31.74;101022.08;103659;280;38271;-73
2023/03/16 10:26:58;;;;;;;9.30;6.30;;;;;;;14.51;32.64;101025.08;103712;280;38266;-74
2023/03/16 10:29:38;;;;;;;12.80;7.10;;;;;;;13.86;33.24;101026.96;103746;280;38271;-74
2023/03/16 10:32:19;;;;;;;12.50;6.90;;;;;;;13.17;34.44;101028.98;103690;280;38478;-74
2023/03/16 10:35:04;;;;;;;11.10;6.10;;;;;;;12.71;35.62;101031.23;103699;280;38245;-73
2023/03/16 10:37:42;;;;;;;8.90;5.90;;;;;;;12.51;36.27;101028.61;103688;280;39686;-73
2023/03/16 10:40:19;;;;;;;7.60;5.40;;;;;;;12.23;36.32;101029.41;103686;280;39625;-73
2023/03/16 10:42:58;;;;;;;9.90;6.40;;;;;;;11.88;36.62;101030.77;103713;280;38642;-72
2023/03/16 10:45:34;;;;;;;10.50;6.60;;;;;;;11.47;37.04;101033.98;103681;280;37944;-72
2023/03/16 10:48:14;;;;;;;11.10;5.40;;;;;;;11.12;37.33;101033.13;103691;280;39469;-74
2023/03/16 10:50:52;;;;;;;7.50;5.00;;;;;;;11.06;38.25;101030.83;103717;280;38887;-74
2023/03/16 10:53:28;;;;;;;9.80;5.80;;;;;;;11.29;39.08;101032.60;103672;280;38402;-74
2023/03/16 10:56:10;;;;;;;8.30;4.60;;;;;;;11.50;38.64;101028.98;103467;280;38249;-73
2023/03/16 10:58:49;;;;;;;6.20;3.70;;;;;;;11.53;37.95;101032.55;103571;280;38748;-73
2023/03/16 11:01:29;;;;;;;8.50;3.50;;;;;;;11.56;37.07;101028.45;103609;280;38391;-70
2023/03/16 11:04:11;;;;;;;9.40;2.50;;;;;;;11.50;37.17;101026.55;103698;280;38269;-73
2023/03/16 11:06:54;;;;;;;5.70;2.60;;;;;;;11.34;36.81;101026.32;103675;280;38238;-73
2023/03/16 11:09:36;;;;;;;6.90;2.80;;;;;;;11.21;37.23;101030.93;103673;280;40014;-74
2023/03/16 11:12:27;;;;;;;6.90;2.90;;;;;;;11.10;37.16;101028.27;103665;280;39639;-73
2023/03/16 11:15:11;;;;;;;9.10;3.80;;;;;;;10.98;37.17;101029.86;103737;280;38480;-73
2023/03/16 11:17:50;;;;;;;7.70;3.80;;;;;;;10.76;37.83;101032.92;103644;280;39508;-73
2023/03/16 11:20:27;;;;;;;12.30;4.60;;;;;;;10.51;38.18;101034.83;103695;280;38489;-73
2023/03/16 11:23:07;;;;;;;9.30;4.20;;;;;;;10.29;38.93;101035.77;103675;280;38512;-74
2023/03/16 11:25:45;;;;;;;10.00;4.60;;;;;;;10.09;39.56;101037.83;103702;280;38473;-74
2023/03/16 11:28:24;;;;;;;8.90;4.30;;;;;;;9.88;39.88;101038.19;103663;280;38493;-74
2023/03/16 11:31:04;;;;;;;10.10;5.60;;;;;;;9.66;40.46;101033.84;103694;280;38372;-73
2023/03/16 11:33:41;;;;;;;10.70;5.00;;;;;;;9.47;41.13;101036.54;103735;280;38102;-71
2023/03/16 11:36:32;;;;;;;;;;;;;;;9.34;41.79;101038.05;103725;280;39602;-73
2023/03/16 11:39:14;;;;;;;10.00;5.10;;;;;;;9.14;42.32;101039.53;103683;280;39424;-74
2023/03/16 11:41:57;;;;;;;12.00;5.20;;;;;;;9.08;42.68;101036.70;103693;280;38517;-73
2023/03/16 11:44:40;;;;;;;12.20;5.10;;;;;;;8.99;43.08;101040.36;103669;280;38271;-73
2023/03/16 11:47:39;;;;;;;11.20;4.60;;;;;;;8.92;43.32;101038.25;103616;281;38353;-72
2023/03/16 11:50:20;;;;;;;13.50;4.70;;;;;;;8.83;43.37;101041.56;103731;280;38221;-73
2023/03/16 11:53:01;;;;;;;12.20;5.20;;;;;;;8.76;43.64;101041.00;103708;280;38672;-73
2023/03/16 11:55:42;;;;;;;11.10;4.80;;;;;;;8.70;43.54;101044.08;103692;280;38713;-72
2023/03/16 11:58:36;;;;;;;12.30;4.50;;;;;;;8.59;43.09;101041.34;103666;280;39080;-71